sensor_id;sensor_type;location;lat;lon;timestamp;P1;durP1;ratioP1;P2;durP2;ratioP2
16153;SDS011;8182;55.648;13.208;2022-10-03T00:05:42;13.03;;;2.83;;
16153;SDS011;8182;55.648;13.208;2022-10-03T00:08:20;12.90;;;2.70;;
16153;SDS011;8182;55.648;13.208;2022-10-03T00:10:59;16.13;;;2.60;;
16153;SDS011;8182;55.648;13.208;2022-10-03T00:13:39;12.87;;;2.40;;
16153;SDS011;8182;55.648;13.208;2022-10-03T00:16:14;13.37;;;2.70;;
16153;SDS011;8182;55.648;13.208;2022-10-03T00:18:53;13.40;;;2.50;;
16153;SDS011;8182;55.648;13.208;2022-10-03T00:21:31;12.50;;;2.33;;
16153;SDS011;8182;55.648;13.208;2022-10-03T00:24:14;14.00;;;2.53;;
16153;SDS011;8182;55.648;13.208;2022-10-03T00:26:51;11.67;;;2.87;;
16153;SDS011;8182;55.648;13.208;2022-10-03T00:29:39;12.37;;;2.73;;
16153;SDS011;8182;55.648;13.208;2022-10-03T00:32:20;14.33;;;3.27;;
16153;SDS011;8182;55.648;13.208;2022-10-03T00:35:01;14.07;;;2.73;;
16153;SDS011;8182;55.648;13.208;2022-10-03T00:37:38;12.47;;;2.73;;
16153;SDS011;8182;55.648;13.208;2022-10-03T00:40:21;16.67;;;3.17;;
16153;SDS011;8182;55.648;13.208;2022-10-03T00:52:34;16.73;;;3.40;;
16153;SDS011;8182;55.648;13.208;2022-10-03T00:55:15;18.27;;;2.80;;
16153;SDS011;8182;55.648;13.208;2022-10-03T00:58:05;10.83;;;2.50;;
16153;SDS011;8182;55.648;13.208;2022-10-03T01:00:45;13.60;;;2.60;;
16153;SDS011;8182;55.648;13.208;2022-10-03T01:06:15;15.67;;;3.07;;
16153;SDS011;8182;55.648;13.208;2022-10-03T01:08:56;19.60;;;3.03;;
16153;SDS011;8182;55.648;13.208;2022-10-03T01:11:36;14.87;;;2.87;;
16153;SDS011;8182;55.648;13.208;2022-10-03T01:14:19;14.73;;;2.77;;
16153;SDS011;8182;55.648;13.208;2022-10-03T01:17:00;17.80;;;3.33;;
16153;SDS011;8182;55.648;13.208;2022-10-03T01:22:40;13.23;;;3.03;;
16153;SDS011;8182;55.648;13.208;2022-10-03T01:25:35;13.80;;;2.90;;
16153;SDS011;8182;55.648;13.208;2022-10-03T01:28:18;15.90;;;2.70;;
16153;SDS011;8182;55.648;13.208;2022-10-03T01:31:14;13.17;;;2.90;;
16153;SDS011;8182;55.648;13.208;2022-10-03T01:33:45;18.60;;;2.80;;
16153;SDS011;8182;55.648;13.208;2022-10-03T01:36:24;15.90;;;3.40;;
16153;SDS011;8182;55.648;13.208;2022-10-03T01:38:59;18.53;;;2.80;;
16153;SDS011;8182;55.648;13.208;2022-10-03T01:41:38;14.83;;;2.70;;
16153;SDS011;8182;55.648;13.208;2022-10-03T01:44:15;18.50;;;3.20;;
16153;SDS011;8182;55.648;13.208;2022-10-03T01:46:49;14.80;;;3.37;;
16153;SDS011;8182;55.648;13.208;2022-10-03T01:49:23;17.33;;;2.70;;
16153;SDS011;8182;55.648;13.208;2022-10-03T01:51:58;17.60;;;3.03;;
16153;SDS011;8182;55.648;13.208;2022-10-03T01:54:33;19.57;;;3.03;;
16153;SDS011;8182;55.648;13.208;2022-10-03T01:57:09;16.20;;;3.27;;
16153;SDS011;8182;55.648;13.208;2022-10-03T01:59:46;17.27;;;3.30;;
16153;SDS011;8182;55.648;13.208;2022-10-03T02:02:24;16.93;;;2.90;;
16153;SDS011;8182;55.648;13.208;2022-10-03T02:04:58;18.83;;;2.87;;
16153;SDS011;8182;55.648;13.208;2022-10-03T02:07:33;20.80;;;3.23;;
16153;SDS011;8182;55.648;13.208;2022-10-03T02:10:07;17.13;;;3.00;;
16153;SDS011;8182;55.648;13.208;2022-10-03T02:12:47;17.50;;;3.73;;
16153;SDS011;8182;55.648;13.208;2022-10-03T02:15:23;13.27;;;2.93;;
16153;SDS011;8182;55.648;13.208;2022-10-03T02:17:55;21.60;;;3.03;;
16153;SDS011;8182;55.648;13.208;2022-10-03T02:20:31;16.00;;;2.93;;
16153;SDS011;8182;55.648;13.208;2022-10-03T02:23:01;17.43;;;3.23;;
16153;SDS011;8182;55.648;13.208;2022-10-03T02:25:50;16.13;;;2.60;;
16153;SDS011;8182;55.648;13.208;2022-10-03T02:28:42;18.03;;;2.77;;
16153;SDS011;8182;55.648;13.208;2022-10-03T02:31:30;15.53;;;3.07;;
16153;SDS011;8182;55.648;13.208;2022-10-03T02:34:24;15.57;;;3.03;;
16153;SDS011;8182;55.648;13.208;2022-10-03T02:37:48;19.57;;;3.00;;
16153;SDS011;8182;55.648;13.208;2022-10-03T02:40:39;13.00;;;3.77;;
16153;SDS011;8182;55.648;13.208;2022-10-03T02:46:25;15.00;;;3.13;;
16153;SDS011;8182;55.648;13.208;2022-10-03T02:49:30;13.43;;;2.50;;
16153;SDS011;8182;55.648;13.208;2022-10-03T02:52:28;15.27;;;2.97;;
16153;SDS011;8182;55.648;13.208;2022-10-03T02:55:27;20.03;;;3.10;;
16153;SDS011;8182;55.648;13.208;2022-10-03T03:04:38;13.20;;;3.00;;
16153;SDS011;8182;55.648;13.208;2022-10-03T03:07:30;21.37;;;3.40;;
16153;SDS011;8182;55.648;13.208;2022-10-03T03:19:17;15.37;;;3.53;;
16153;SDS011;8182;55.648;13.208;2022-10-03T03:22:10;17.10;;;3.50;;
16153;SDS011;8182;55.648;13.208;2022-10-03T03:25:02;15.83;;;3.27;;
16153;SDS011;8182;55.648;13.208;2022-10-03T03:27:47;19.70;;;3.47;;
16153;SDS011;8182;55.648;13.208;2022-10-03T03:30:27;17.07;;;2.80;;
16153;SDS011;8182;55.648;13.208;2022-10-03T03:33:04;17.97;;;2.73;;
16153;SDS011;8182;55.648;13.208;2022-10-03T03:35:41;17.53;;;3.87;;
16153;SDS011;8182;55.648;13.208;2022-10-03T03:38:21;17.87;;;2.97;;
16153;SDS011;8182;55.648;13.208;2022-10-03T03:40:57;20.07;;;3.57;;
16153;SDS011;8182;55.648;13.208;2022-10-03T03:43:48;19.20;;;3.13;;
16153;SDS011;8182;55.648;13.208;2022-10-03T03:46:39;12.43;;;2.80;;
16153;SDS011;8182;55.648;13.208;2022-10-03T03:49:30;18.57;;;2.77;;
16153;SDS011;8182;55.648;13.208;2022-10-03T03:52:24;14.03;;;2.77;;
16153;SDS011;8182;55.648;13.208;2022-10-03T03:55:08;17.20;;;2.93;;
16153;SDS011;8182;55.648;13.208;2022-10-03T03:57:59;24.33;;;4.30;;
16153;SDS011;8182;55.648;13.208;2022-10-03T04:00:41;20.07;;;3.27;;
16153;SDS011;8182;55.648;13.208;2022-10-03T04:06:23;15.60;;;2.63;;
16153;SDS011;8182;55.648;13.208;2022-10-03T04:09:11;12.67;;;2.93;;
16153;SDS011;8182;55.648;13.208;2022-10-03T04:11:58;15.83;;;2.70;;
16153;SDS011;8182;55.648;13.208;2022-10-03T04:17:57;18.17;;;3.03;;
16153;SDS011;8182;55.648;13.208;2022-10-03T04:21:00;13.03;;;2.80;;
16153;SDS011;8182;55.648;13.208;2022-10-03T04:23:48;14.83;;;2.73;;
16153;SDS011;8182;55.648;13.208;2022-10-03T04:26:34;12.27;;;2.50;;
16153;SDS011;8182;55.648;13.208;2022-10-03T04:29:19;11.27;;;2.53;;
16153;SDS011;8182;55.648;13.208;2022-10-03T04:32:00;18.60;;;2.87;;
16153;SDS011;8182;55.648;13.208;2022-10-03T04:34:41;16.60;;;3.13;;
16153;SDS011;8182;55.648;13.208;2022-10-03T04:37:19;16.07;;;2.83;;
16153;SDS011;8182;55.648;13.208;2022-10-03T04:39:52;17.10;;;2.70;;
16153;SDS011;8182;55.648;13.208;2022-10-03T04:42:41;21.43;;;3.20;;
16153;SDS011;8182;55.648;13.208;2022-10-03T04:45:18;14.47;;;2.93;;
16153;SDS011;8182;55.648;13.208;2022-10-03T04:47:58;15.60;;;2.63;;
16153;SDS011;8182;55.648;13.208;2022-10-03T04:50:36;17.80;;;3.00;;
16153;SDS011;8182;55.648;13.208;2022-10-03T04:53:11;19.00;;;3.30;;
16153;SDS011;8182;55.648;13.208;2022-10-03T04:55:51;17.20;;;2.87;;
16153;SDS011;8182;55.648;13.208;2022-10-03T04:58:29;21.57;;;3.60;;
16153;SDS011;8182;55.648;13.208;2022-10-03T05:01:05;20.27;;;2.93;;
16153;SDS011;8182;55.648;13.208;2022-10-03T05:03:41;20.30;;;3.33;;
16153;SDS011;8182;55.648;13.208;2022-10-03T05:09:12;20.00;;;2.90;;
16153;SDS011;8182;55.648;13.208;2022-10-03T05:11:48;19.30;;;2.67;;
16153;SDS011;8182;55.648;13.208;2022-10-03T05:14:28;19.37;;;2.87;;
16153;SDS011;8182;55.648;13.208;2022-10-03T05:17:14;16.40;;;2.90;;
16153;SDS011;8182;55.648;13.208;2022-10-03T05:22:49;16.70;;;2.40;;
16153;SDS011;8182;55.648;13.208;2022-10-03T05:25:28;14.07;;;3.13;;
16153;SDS011;8182;55.648;13.208;2022-10-03T05:28:10;12.63;;;2.90;;
16153;SDS011;8182;55.648;13.208;2022-10-03T05:30:49;18.10;;;2.93;;
16153;SDS011;8182;55.648;13.208;2022-10-03T05:33:27;17.80;;;3.33;;
16153;SDS011;8182;55.648;13.208;2022-10-03T05:36:12;15.37;;;3.00;;
16153;SDS011;8182;55.648;13.208;2022-10-03T05:41:51;17.93;;;2.67;;
16153;SDS011;8182;55.648;13.208;2022-10-03T05:44:27;16.27;;;2.73;;
16153;SDS011;8182;55.648;13.208;2022-10-03T05:47:09;17.83;;;2.90;;
16153;SDS011;8182;55.648;13.208;2022-10-03T05:49:56;15.47;;;2.67;;
16153;SDS011;8182;55.648;13.208;2022-10-03T05:52:43;12.77;;;2.60;;
16153;SDS011;8182;55.648;13.208;2022-10-03T05:55:34;16.70;;;2.70;;
16153;SDS011;8182;55.648;13.208;2022-10-03T06:01:25;14.33;;;2.40;;
16153;SDS011;8182;55.648;13.208;2022-10-03T06:04:08;14.03;;;2.23;;
16153;SDS011;8182;55.648;13.208;2022-10-03T06:06:50;17.50;;;2.40;;
16153;SDS011;8182;55.648;13.208;2022-10-03T06:09:34;14.30;;;2.30;;
16153;SDS011;8182;55.648;13.208;2022-10-03T06:12:28;10.30;;;2.07;;
16153;SDS011;8182;55.648;13.208;2022-10-03T06:15:14;16.23;;;3.10;;
16153;SDS011;8182;55.648;13.208;2022-10-03T06:18:00;26.60;;;13.10;;
16153;SDS011;8182;55.648;13.208;2022-10-03T06:23:57;13.43;;;3.80;;
16153;SDS011;8182;55.648;13.208;2022-10-03T06:45:35;11.40;;;2.53;;
16153;SDS011;8182;55.648;13.208;2022-10-03T06:48:30;13.03;;;2.63;;
16153;SDS011;8182;55.648;13.208;2022-10-03T06:54:21;18.03;;;4.00;;
16153;SDS011;8182;55.648;13.208;2022-10-03T06:57:31;20.57;;;3.33;;
16153;SDS011;8182;55.648;13.208;2022-10-03T07:00:26;13.30;;;2.67;;
16153;SDS011;8182;55.648;13.208;2022-10-03T07:03:20;13.40;;;2.73;;
16153;SDS011;8182;55.648;13.208;2022-10-03T07:09:30;11.83;;;2.50;;
16153;SDS011;8182;55.648;13.208;2022-10-03T07:15:27;15.30;;;3.00;;
16153;SDS011;8182;55.648;13.208;2022-10-03T07:21:18;15.23;;;2.70;;
16153;SDS011;8182;55.648;13.208;2022-10-03T07:24:05;11.30;;;2.53;;
16153;SDS011;8182;55.648;13.208;2022-10-03T07:30:05;16.63;;;2.93;;
16153;SDS011;8182;55.648;13.208;2022-10-03T07:32:40;13.67;;;2.50;;
16153;SDS011;8182;55.648;13.208;2022-10-03T07:35:35;14.03;;;2.40;;
16153;SDS011;8182;55.648;13.208;2022-10-03T07:41:29;12.90;;;2.33;;
16153;SDS011;8182;55.648;13.208;2022-10-03T07:44:22;15.50;;;2.80;;
16153;SDS011;8182;55.648;13.208;2022-10-03T07:47:36;11.07;;;2.50;;
16153;SDS011;8182;55.648;13.208;2022-10-03T07:53:51;14.57;;;2.73;;
16153;SDS011;8182;55.648;13.208;2022-10-03T07:56:56;15.73;;;3.23;;
16153;SDS011;8182;55.648;13.208;2022-10-03T08:00:04;15.13;;;3.10;;
16153;SDS011;8182;55.648;13.208;2022-10-03T08:02:56;10.83;;;2.33;;
16153;SDS011;8182;55.648;13.208;2022-10-03T08:06:05;11.03;;;2.40;;
16153;SDS011;8182;55.648;13.208;2022-10-03T08:11:56;10.43;;;2.67;;
16153;SDS011;8182;55.648;13.208;2022-10-03T08:14:51;11.60;;;2.40;;
16153;SDS011;8182;55.648;13.208;2022-10-03T08:20:32;13.93;;;2.87;;
16153;SDS011;8182;55.648;13.208;2022-10-03T08:23:17;12.73;;;2.93;;
16153;SDS011;8182;55.648;13.208;2022-10-03T08:26:08;14.77;;;2.93;;
16153;SDS011;8182;55.648;13.208;2022-10-03T08:31:57;14.33;;;3.93;;
16153;SDS011;8182;55.648;13.208;2022-10-03T08:50:18;12.10;;;2.57;;
16153;SDS011;8182;55.648;13.208;2022-10-03T08:55:59;11.00;;;2.57;;
16153;SDS011;8182;55.648;13.208;2022-10-03T09:01:48;11.23;;;2.57;;
16153;SDS011;8182;55.648;13.208;2022-10-03T09:07:53;12.50;;;2.40;;
16153;SDS011;8182;55.648;13.208;2022-10-03T09:10:53;10.90;;;2.20;;
16153;SDS011;8182;55.648;13.208;2022-10-03T09:16:58;14.43;;;2.50;;
16153;SDS011;8182;55.648;13.208;2022-10-03T09:25:50;8.17;;;2.07;;
16153;SDS011;8182;55.648;13.208;2022-10-03T09:28:36;7.37;;;2.20;;
16153;SDS011;8182;55.648;13.208;2022-10-03T09:31:34;10.87;;;2.17;;
16153;SDS011;8182;55.648;13.208;2022-10-03T09:40:18;8.07;;;2.10;;
16153;SDS011;8182;55.648;13.208;2022-10-03T09:43:20;9.97;;;2.00;;
16153;SDS011;8182;55.648;13.208;2022-10-03T09:46:12;8.17;;;2.03;;
16153;SDS011;8182;55.648;13.208;2022-10-03T09:52:05;8.53;;;1.70;;
16153;SDS011;8182;55.648;13.208;2022-10-03T10:01:13;8.83;;;2.03;;
16153;SDS011;8182;55.648;13.208;2022-10-03T10:10:33;5.97;;;1.87;;
16153;SDS011;8182;55.648;13.208;2022-10-03T10:16:26;7.00;;;2.10;;
16153;SDS011;8182;55.648;13.208;2022-10-03T10:19:22;8.13;;;1.57;;
16153;SDS011;8182;55.648;13.208;2022-10-03T10:22:14;5.17;;;1.50;;
16153;SDS011;8182;55.648;13.208;2022-10-03T10:28:37;5.33;;;1.40;;
16153;SDS011;8182;55.648;13.208;2022-10-03T10:34:58;5.03;;;1.30;;
16153;SDS011;8182;55.648;13.208;2022-10-03T10:44:34;6.57;;;1.27;;
16153;SDS011;8182;55.648;13.208;2022-10-03T10:47:42;4.37;;;1.40;;
16153;SDS011;8182;55.648;13.208;2022-10-03T10:50:41;4.10;;;1.43;;
16153;SDS011;8182;55.648;13.208;2022-10-03T10:54:03;4.60;;;1.30;;
16153;SDS011;8182;55.648;13.208;2022-10-03T10:59:57;5.00;;;1.33;;
16153;SDS011;8182;55.648;13.208;2022-10-03T11:06:11;5.40;;;1.63;;
16153;SDS011;8182;55.648;13.208;2022-10-03T11:09:17;7.03;;;1.70;;
16153;SDS011;8182;55.648;13.208;2022-10-03T11:33:55;4.70;;;1.50;;
16153;SDS011;8182;55.648;13.208;2022-10-03T11:36:57;5.70;;;1.40;;
16153;SDS011;8182;55.648;13.208;2022-10-03T11:39:33;5.47;;;1.70;;
16153;SDS011;8182;55.648;13.208;2022-10-03T11:42:10;6.03;;;1.83;;
16153;SDS011;8182;55.648;13.208;2022-10-03T11:44:50;6.73;;;1.90;;
16153;SDS011;8182;55.648;13.208;2022-10-03T11:53:24;5.90;;;1.93;;
16153;SDS011;8182;55.648;13.208;2022-10-03T11:56:17;7.27;;;1.60;;
16153;SDS011;8182;55.648;13.208;2022-10-03T11:58:54;6.93;;;1.90;;
16153;SDS011;8182;55.648;13.208;2022-10-03T12:01:42;6.03;;;1.70;;
16153;SDS011;8182;55.648;13.208;2022-10-03T12:04:24;4.67;;;1.20;;
16153;SDS011;8182;55.648;13.208;2022-10-03T12:06:57;6.23;;;1.50;;
16153;SDS011;8182;55.648;13.208;2022-10-03T12:09:54;8.30;;;2.07;;
16153;SDS011;8182;55.648;13.208;2022-10-03T12:12:30;8.60;;;1.77;;
16153;SDS011;8182;55.648;13.208;2022-10-03T12:15:05;5.83;;;1.70;;
16153;SDS011;8182;55.648;13.208;2022-10-03T12:17:49;7.57;;;1.40;;
16153;SDS011;8182;55.648;13.208;2022-10-03T12:20:27;7.93;;;1.87;;
16153;SDS011;8182;55.648;13.208;2022-10-03T12:23:00;6.93;;;1.50;;
16153;SDS011;8182;55.648;13.208;2022-10-03T12:25:39;7.23;;;1.80;;
16153;SDS011;8182;55.648;13.208;2022-10-03T12:28:09;8.73;;;2.00;;
16153;SDS011;8182;55.648;13.208;2022-10-03T12:30:43;7.20;;;1.70;;
16153;SDS011;8182;55.648;13.208;2022-10-03T12:33:21;9.23;;;1.93;;
16153;SDS011;8182;55.648;13.208;2022-10-03T12:36:00;6.60;;;1.80;;
16153;SDS011;8182;55.648;13.208;2022-10-03T12:38:38;5.73;;;1.70;;
16153;SDS011;8182;55.648;13.208;2022-10-03T12:41:21;9.37;;;2.00;;
16153;SDS011;8182;55.648;13.208;2022-10-03T12:44:09;11.43;;;2.47;;
16153;SDS011;8182;55.648;13.208;2022-10-03T12:46:47;5.37;;;1.60;;
16153;SDS011;8182;55.648;13.208;2022-10-03T12:49:23;6.13;;;1.67;;
16153;SDS011;8182;55.648;13.208;2022-10-03T12:52:05;7.77;;;2.00;;
16153;SDS011;8182;55.648;13.208;2022-10-03T12:54:44;8.97;;;2.03;;
16153;SDS011;8182;55.648;13.208;2022-10-03T12:57:21;7.27;;;1.90;;
16153;SDS011;8182;55.648;13.208;2022-10-03T13:00:05;8.10;;;1.40;;
16153;SDS011;8182;55.648;13.208;2022-10-03T13:02:40;8.03;;;1.60;;
16153;SDS011;8182;55.648;13.208;2022-10-03T13:08:18;8.20;;;1.70;;
16153;SDS011;8182;55.648;13.208;2022-10-03T13:11:07;6.70;;;1.60;;
16153;SDS011;8182;55.648;13.208;2022-10-03T13:14:03;4.87;;;1.27;;
16153;SDS011;8182;55.648;13.208;2022-10-03T13:16:42;7.20;;;1.87;;
16153;SDS011;8182;55.648;13.208;2022-10-03T13:19:18;8.40;;;1.93;;
16153;SDS011;8182;55.648;13.208;2022-10-03T13:21:54;6.43;;;1.50;;
16153;SDS011;8182;55.648;13.208;2022-10-03T13:24:31;7.17;;;1.63;;
16153;SDS011;8182;55.648;13.208;2022-10-03T13:27:21;9.97;;;1.70;;
16153;SDS011;8182;55.648;13.208;2022-10-03T13:29:59;6.90;;;1.80;;
16153;SDS011;8182;55.648;13.208;2022-10-03T13:32:31;7.17;;;1.73;;
16153;SDS011;8182;55.648;13.208;2022-10-03T13:41:28;9.83;;;1.80;;
16153;SDS011;8182;55.648;13.208;2022-10-03T13:44:05;5.63;;;1.70;;
16153;SDS011;8182;55.648;13.208;2022-10-03T13:46:41;9.43;;;1.93;;
16153;SDS011;8182;55.648;13.208;2022-10-03T13:49:18;9.23;;;1.73;;
16153;SDS011;8182;55.648;13.208;2022-10-03T13:51:56;5.67;;;1.53;;
16153;SDS011;8182;55.648;13.208;2022-10-03T13:57:44;7.53;;;1.90;;
16153;SDS011;8182;55.648;13.208;2022-10-03T14:00:19;4.33;;;1.20;;
16153;SDS011;8182;55.648;13.208;2022-10-03T14:05:51;5.47;;;1.43;;
16153;SDS011;8182;55.648;13.208;2022-10-03T14:11:35;7.40;;;1.40;;
16153;SDS011;8182;55.648;13.208;2022-10-03T14:14:14;6.63;;;1.50;;
16153;SDS011;8182;55.648;13.208;2022-10-03T14:17:12;6.53;;;1.53;;
16153;SDS011;8182;55.648;13.208;2022-10-03T14:19:50;7.67;;;1.83;;
16153;SDS011;8182;55.648;13.208;2022-10-03T14:22:33;10.90;;;1.77;;
16153;SDS011;8182;55.648;13.208;2022-10-03T14:27:59;8.00;;;1.60;;
16153;SDS011;8182;55.648;13.208;2022-10-03T14:30:34;8.07;;;1.90;;
16153;SDS011;8182;55.648;13.208;2022-10-03T14:33:13;8.13;;;1.70;;
16153;SDS011;8182;55.648;13.208;2022-10-03T14:35:57;9.13;;;1.87;;
16153;SDS011;8182;55.648;13.208;2022-10-03T14:38:36;6.50;;;1.80;;
16153;SDS011;8182;55.648;13.208;2022-10-03T14:41:27;4.77;;;1.50;;
16153;SDS011;8182;55.648;13.208;2022-10-03T14:44:08;5.63;;;1.30;;
16153;SDS011;8182;55.648;13.208;2022-10-03T14:46:41;7.20;;;1.93;;
16153;SDS011;8182;55.648;13.208;2022-10-03T14:49:16;6.50;;;1.40;;
16153;SDS011;8182;55.648;13.208;2022-10-03T14:51:47;6.67;;;1.50;;
16153;SDS011;8182;55.648;13.208;2022-10-03T14:54:19;7.37;;;1.80;;
16153;SDS011;8182;55.648;13.208;2022-10-03T14:56:49;6.57;;;1.50;;
16153;SDS011;8182;55.648;13.208;2022-10-03T14:59:19;6.27;;;1.40;;
16153;SDS011;8182;55.648;13.208;2022-10-03T15:01:53;9.03;;;2.03;;
16153;SDS011;8182;55.648;13.208;2022-10-03T15:04:31;4.27;;;1.43;;
16153;SDS011;8182;55.648;13.208;2022-10-03T15:07:01;7.63;;;1.40;;
16153;SDS011;8182;55.648;13.208;2022-10-03T15:09:31;5.30;;;1.20;;
16153;SDS011;8182;55.648;13.208;2022-10-03T15:12:08;4.60;;;1.27;;
16153;SDS011;8182;55.648;13.208;2022-10-03T15:14:41;8.60;;;1.40;;
16153;SDS011;8182;55.648;13.208;2022-10-03T15:17:18;7.63;;;1.87;;
16153;SDS011;8182;55.648;13.208;2022-10-03T15:19:49;10.03;;;1.63;;
16153;SDS011;8182;55.648;13.208;2022-10-03T15:22:24;6.60;;;1.77;;
16153;SDS011;8182;55.648;13.208;2022-10-03T15:25:00;6.20;;;1.33;;
16153;SDS011;8182;55.648;13.208;2022-10-03T15:27:32;7.30;;;1.50;;
16153;SDS011;8182;55.648;13.208;2022-10-03T15:30:01;5.87;;;1.50;;
16153;SDS011;8182;55.648;13.208;2022-10-03T15:32:33;6.17;;;1.93;;
16153;SDS011;8182;55.648;13.208;2022-10-03T15:35:03;8.43;;;2.10;;
16153;SDS011;8182;55.648;13.208;2022-10-03T15:37:33;7.80;;;1.77;;
16153;SDS011;8182;55.648;13.208;2022-10-03T15:40:06;7.60;;;1.77;;
16153;SDS011;8182;55.648;13.208;2022-10-03T15:42:42;6.57;;;1.70;;
16153;SDS011;8182;55.648;13.208;2022-10-03T15:45:16;5.90;;;1.80;;
16153;SDS011;8182;55.648;13.208;2022-10-03T15:47:48;7.43;;;1.77;;
16153;SDS011;8182;55.648;13.208;2022-10-03T15:50:17;7.43;;;1.73;;
16153;SDS011;8182;55.648;13.208;2022-10-03T15:52:49;6.77;;;1.43;;
16153;SDS011;8182;55.648;13.208;2022-10-03T15:55:19;8.67;;;1.60;;
16153;SDS011;8182;55.648;13.208;2022-10-03T15:57:51;7.03;;;1.43;;
16153;SDS011;8182;55.648;13.208;2022-10-03T16:00:26;8.87;;;1.90;;
16153;SDS011;8182;55.648;13.208;2022-10-03T16:02:59;6.63;;;1.80;;
16153;SDS011;8182;55.648;13.208;2022-10-03T16:05:35;7.53;;;1.80;;
16153;SDS011;8182;55.648;13.208;2022-10-03T16:08:09;8.17;;;1.80;;
16153;SDS011;8182;55.648;13.208;2022-10-03T16:10:43;5.70;;;1.60;;
16153;SDS011;8182;55.648;13.208;2022-10-03T16:13:23;7.67;;;1.53;;
16153;SDS011;8182;55.648;13.208;2022-10-03T16:16:04;6.53;;;1.63;;
16153;SDS011;8182;55.648;13.208;2022-10-03T16:18:40;7.67;;;1.57;;
16153;SDS011;8182;55.648;13.208;2022-10-03T16:21:13;5.10;;;1.60;;
16153;SDS011;8182;55.648;13.208;2022-10-03T16:23:45;4.90;;;1.80;;
16153;SDS011;8182;55.648;13.208;2022-10-03T16:26:17;8.50;;;1.50;;
16153;SDS011;8182;55.648;13.208;2022-10-03T16:28:49;6.63;;;1.50;;
16153;SDS011;8182;55.648;13.208;2022-10-03T16:31:32;12.53;;;2.13;;
16153;SDS011;8182;55.648;13.208;2022-10-03T16:34:05;5.77;;;1.60;;
16153;SDS011;8182;55.648;13.208;2022-10-03T16:36:40;7.97;;;1.53;;
16153;SDS011;8182;55.648;13.208;2022-10-03T16:39:14;6.10;;;1.60;;
16153;SDS011;8182;55.648;13.208;2022-10-03T16:41:45;10.50;;;1.80;;
16153;SDS011;8182;55.648;13.208;2022-10-03T16:44:17;8.73;;;1.87;;
16153;SDS011;8182;55.648;13.208;2022-10-03T16:46:48;11.10;;;2.00;;
16153;SDS011;8182;55.648;13.208;2022-10-03T16:49:26;11.13;;;1.73;;
16153;SDS011;8182;55.648;13.208;2022-10-03T16:52:17;7.70;;;2.00;;
16153;SDS011;8182;55.648;13.208;2022-10-03T16:54:47;6.10;;;1.73;;
16153;SDS011;8182;55.648;13.208;2022-10-03T16:57:23;9.77;;;1.67;;
16153;SDS011;8182;55.648;13.208;2022-10-03T16:59:58;8.23;;;1.70;;
16153;SDS011;8182;55.648;13.208;2022-10-03T17:02:31;7.47;;;1.80;;
16153;SDS011;8182;55.648;13.208;2022-10-03T17:05:05;5.97;;;1.57;;
16153;SDS011;8182;55.648;13.208;2022-10-03T17:07:36;7.57;;;1.97;;
16153;SDS011;8182;55.648;13.208;2022-10-03T17:10:06;6.90;;;1.70;;
16153;SDS011;8182;55.648;13.208;2022-10-03T17:12:54;10.13;;;2.03;;
16153;SDS011;8182;55.648;13.208;2022-10-03T17:15:26;9.50;;;2.27;;
16153;SDS011;8182;55.648;13.208;2022-10-03T17:17:56;6.90;;;1.93;;
16153;SDS011;8182;55.648;13.208;2022-10-03T17:20:37;5.23;;;1.47;;
16153;SDS011;8182;55.648;13.208;2022-10-03T17:23:09;7.13;;;1.77;;
16153;SDS011;8182;55.648;13.208;2022-10-03T17:25:46;9.30;;;1.93;;
16153;SDS011;8182;55.648;13.208;2022-10-03T17:28:24;8.87;;;2.10;;
16153;SDS011;8182;55.648;13.208;2022-10-03T17:30:59;6.97;;;1.63;;
16153;SDS011;8182;55.648;13.208;2022-10-03T17:33:30;9.80;;;1.80;;
16153;SDS011;8182;55.648;13.208;2022-10-03T17:39:19;8.37;;;2.10;;
16153;SDS011;8182;55.648;13.208;2022-10-03T17:41:59;9.93;;;2.10;;
16153;SDS011;8182;55.648;13.208;2022-10-03T17:44:34;8.30;;;1.57;;
16153;SDS011;8182;55.648;13.208;2022-10-03T17:47:05;9.10;;;1.90;;
16153;SDS011;8182;55.648;13.208;2022-10-03T17:49:43;9.20;;;1.70;;
16153;SDS011;8182;55.648;13.208;2022-10-03T17:52:21;12.57;;;1.90;;
16153;SDS011;8182;55.648;13.208;2022-10-03T17:54:52;9.33;;;2.03;;
16153;SDS011;8182;55.648;13.208;2022-10-03T17:57:24;8.50;;;2.00;;
16153;SDS011;8182;55.648;13.208;2022-10-03T18:00:02;7.20;;;2.00;;
16153;SDS011;8182;55.648;13.208;2022-10-03T18:02:34;9.63;;;1.70;;
16153;SDS011;8182;55.648;13.208;2022-10-03T18:05:16;10.73;;;1.93;;
16153;SDS011;8182;55.648;13.208;2022-10-03T18:07:45;10.67;;;2.20;;
16153;SDS011;8182;55.648;13.208;2022-10-03T18:10:18;8.23;;;1.90;;
16153;SDS011;8182;55.648;13.208;2022-10-03T18:12:48;7.10;;;1.90;;
16153;SDS011;8182;55.648;13.208;2022-10-03T18:15:25;11.10;;;2.07;;
16153;SDS011;8182;55.648;13.208;2022-10-03T18:21:25;6.40;;;1.83;;
16153;SDS011;8182;55.648;13.208;2022-10-03T18:26:57;11.40;;;2.00;;
16153;SDS011;8182;55.648;13.208;2022-10-03T18:29:34;11.63;;;2.40;;
16153;SDS011;8182;55.648;13.208;2022-10-03T18:32:10;7.40;;;2.00;;
16153;SDS011;8182;55.648;13.208;2022-10-03T18:34:41;9.23;;;2.20;;
16153;SDS011;8182;55.648;13.208;2022-10-03T18:37:16;13.17;;;2.40;;
16153;SDS011;8182;55.648;13.208;2022-10-03T18:40:22;11.37;;;2.10;;
16153;SDS011;8182;55.648;13.208;2022-10-03T18:42:53;12.50;;;2.50;;
16153;SDS011;8182;55.648;13.208;2022-10-03T18:45:22;10.90;;;2.43;;
16153;SDS011;8182;55.648;13.208;2022-10-03T18:47:54;6.93;;;1.80;;
16153;SDS011;8182;55.648;13.208;2022-10-03T18:50:28;7.70;;;2.00;;
16153;SDS011;8182;55.648;13.208;2022-10-03T18:53:00;7.00;;;2.20;;
16153;SDS011;8182;55.648;13.208;2022-10-03T18:55:41;6.93;;;1.73;;
16153;SDS011;8182;55.648;13.208;2022-10-03T18:58:16;12.13;;;1.83;;
16153;SDS011;8182;55.648;13.208;2022-10-03T19:00:49;10.47;;;2.30;;
16153;SDS011;8182;55.648;13.208;2022-10-03T19:03:21;10.07;;;2.10;;
16153;SDS011;8182;55.648;13.208;2022-10-03T19:05:56;8.60;;;2.00;;
16153;SDS011;8182;55.648;13.208;2022-10-03T19:08:26;8.07;;;2.07;;
16153;SDS011;8182;55.648;13.208;2022-10-03T19:10:59;12.13;;;2.00;;
16153;SDS011;8182;55.648;13.208;2022-10-03T19:13:33;7.93;;;1.83;;
16153;SDS011;8182;55.648;13.208;2022-10-03T19:16:11;13.23;;;3.03;;
16153;SDS011;8182;55.648;13.208;2022-10-03T19:18:42;11.63;;;2.17;;
16153;SDS011;8182;55.648;13.208;2022-10-03T19:21:13;9.67;;;2.23;;
16153;SDS011;8182;55.648;13.208;2022-10-03T19:23:44;15.60;;;2.60;;
16153;SDS011;8182;55.648;13.208;2022-10-03T19:26:20;12.23;;;2.20;;
16153;SDS011;8182;55.648;13.208;2022-10-03T19:28:52;14.33;;;2.57;;
16153;SDS011;8182;55.648;13.208;2022-10-03T19:31:24;7.27;;;2.00;;
16153;SDS011;8182;55.648;13.208;2022-10-03T19:33:55;13.60;;;2.20;;
16153;SDS011;8182;55.648;13.208;2022-10-03T19:36:27;13.50;;;2.13;;
16153;SDS011;8182;55.648;13.208;2022-10-03T19:38:57;9.07;;;2.10;;
16153;SDS011;8182;55.648;13.208;2022-10-03T19:41:26;14.67;;;2.50;;
16153;SDS011;8182;55.648;13.208;2022-10-03T19:44:02;11.97;;;2.43;;
16153;SDS011;8182;55.648;13.208;2022-10-03T19:46:44;9.90;;;2.07;;
16153;SDS011;8182;55.648;13.208;2022-10-03T19:49:29;10.77;;;2.30;;
16153;SDS011;8182;55.648;13.208;2022-10-03T19:52:09;7.07;;;1.93;;
16153;SDS011;8182;55.648;13.208;2022-10-03T19:54:46;10.57;;;2.67;;
16153;SDS011;8182;55.648;13.208;2022-10-03T19:57:19;10.33;;;2.90;;
16153;SDS011;8182;55.648;13.208;2022-10-03T19:59:52;11.97;;;3.07;;
16153;SDS011;8182;55.648;13.208;2022-10-03T20:02:24;12.00;;;2.53;;
16153;SDS011;8182;55.648;13.208;2022-10-03T20:04:53;12.90;;;2.73;;
16153;SDS011;8182;55.648;13.208;2022-10-03T20:07:30;10.23;;;2.70;;
16153;SDS011;8182;55.648;13.208;2022-10-03T20:10:09;11.17;;;2.53;;